sensor_id;sensor_type;location;lat;lon;timestamp;P1;durP1;ratioP1;P2;durP2;ratioP2
56005;SDS011;41888;44.696;10.522;2022-07-29T00:00:58;8.63;;;6.57;;
56005;SDS011;41888;44.696;10.522;2022-07-29T00:03:24;8.77;;;6.20;;
56005;SDS011;41888;44.696;10.522;2022-07-29T00:05:51;7.90;;;6.28;;
56005;SDS011;41888;44.696;10.522;2022-07-29T00:08:18;9.65;;;7.30;;
56005;SDS011;41888;44.696;10.522;2022-07-29T00:10:44;8.98;;;6.03;;
56005;SDS011;41888;44.696;10.522;2022-07-29T00:13:11;11.32;;;7.53;;
56005;SDS011;41888;44.696;10.522;2022-07-29T00:15:37;9.70;;;7.40;;
56005;SDS011;41888;44.696;10.522;2022-07-29T00:18:03;10.20;;;6.35;;
56005;SDS011;41888;44.696;10.522;2022-07-29T00:20:30;8.50;;;6.72;;
56005;SDS011;41888;44.696;10.522;2022-07-29T00:22:56;9.32;;;6.20;;
56005;SDS011;41888;44.696;10.522;2022-07-29T00:25:22;8.70;;;6.47;;
56005;SDS011;41888;44.696;10.522;2022-07-29T00:27:48;9.68;;;6.32;;
56005;SDS011;41888;44.696;10.522;2022-07-29T00:30:15;7.70;;;6.55;;
56005;SDS011;41888;44.696;10.522;2022-07-29T00:32:41;8.30;;;6.18;;
56005;SDS011;41888;44.696;10.522;2022-07-29T00:35:07;9.45;;;7.30;;
56005;SDS011;41888;44.696;10.522;2022-07-29T00:37:52;8.63;;;5.70;;
56005;SDS011;41888;44.696;10.522;2022-07-29T00:40:19;8.65;;;7.03;;
56005;SDS011;41888;44.696;10.522;2022-07-29T00:42:46;9.77;;;6.72;;
56005;SDS011;41888;44.696;10.522;2022-07-29T00:45:13;11.20;;;6.45;;
56005;SDS011;41888;44.696;10.522;2022-07-29T00:47:40;8.45;;;6.28;;
56005;SDS011;41888;44.696;10.522;2022-07-29T00:50:07;8.40;;;6.68;;
56005;SDS011;41888;44.696;10.522;2022-07-29T00:52:35;8.75;;;6.57;;
56005;SDS011;41888;44.696;10.522;2022-07-29T00:55:03;9.73;;;6.60;;
56005;SDS011;41888;44.696;10.522;2022-07-29T00:57:31;11.43;;;6.50;;
56005;SDS011;41888;44.696;10.522;2022-07-29T00:59:58;8.95;;;6.03;;
56005;SDS011;41888;44.696;10.522;2022-07-29T01:02:24;12.52;;;7.28;;
56005;SDS011;41888;44.696;10.522;2022-07-29T01:04:52;8.23;;;6.32;;
56005;SDS011;41888;44.696;10.522;2022-07-29T01:07:18;9.27;;;6.80;;
56005;SDS011;41888;44.696;10.522;2022-07-29T01:09:45;10.20;;;7.32;;
56005;SDS011;41888;44.696;10.522;2022-07-29T01:12:13;10.13;;;7.03;;
56005;SDS011;41888;44.696;10.522;2022-07-29T01:17:18;10.18;;;7.78;;
56005;SDS011;41888;44.696;10.522;2022-07-29T01:20:00;11.75;;;7.97;;
56005;SDS011;41888;44.696;10.522;2022-07-29T01:31:22;11.23;;;7.40;;
56005;SDS011;41888;44.696;10.522;2022-07-29T01:34:11;16.92;;;8.52;;
56005;SDS011;41888;44.696;10.522;2022-07-29T01:36:47;12.23;;;8.25;;
56005;SDS011;41888;44.696;10.522;2022-07-29T01:39:27;14.80;;;9.27;;
56005;SDS011;41888;44.696;10.522;2022-07-29T01:42:10;12.48;;;8.77;;
56005;SDS011;41888;44.696;10.522;2022-07-29T01:47:44;14.68;;;10.07;;
56005;SDS011;41888;44.696;10.522;2022-07-29T01:50:36;16.55;;;10.23;;
56005;SDS011;41888;44.696;10.522;2022-07-29T01:53:34;16.38;;;12.20;;
56005;SDS011;41888;44.696;10.522;2022-07-29T01:56:11;14.38;;;11.30;;
56005;SDS011;41888;44.696;10.522;2022-07-29T01:58:41;18.20;;;11.68;;
56005;SDS011;41888;44.696;10.522;2022-07-29T02:01:10;15.93;;;12.05;;
56005;SDS011;41888;44.696;10.522;2022-07-29T02:03:39;16.95;;;12.68;;
56005;SDS011;41888;44.696;10.522;2022-07-29T02:06:11;19.20;;;12.32;;
56005;SDS011;41888;44.696;10.522;2022-07-29T02:08:40;14.82;;;10.93;;
56005;SDS011;41888;44.696;10.522;2022-07-29T02:11:08;16.55;;;12.45;;
56005;SDS011;41888;44.696;10.522;2022-07-29T02:13:34;16.98;;;12.05;;
56005;SDS011;41888;44.696;10.522;2022-07-29T02:16:02;16.17;;;11.55;;
56005;SDS011;41888;44.696;10.522;2022-07-29T02:18:32;17.25;;;11.73;;
56005;SDS011;41888;44.696;10.522;2022-07-29T02:21:01;13.60;;;11.18;;
56005;SDS011;41888;44.696;10.522;2022-07-29T02:23:29;15.75;;;11.90;;
56005;SDS011;41888;44.696;10.522;2022-07-29T02:25:57;15.23;;;11.60;;
56005;SDS011;41888;44.696;10.522;2022-07-29T02:28:26;19.38;;;12.80;;
56005;SDS011;41888;44.696;10.522;2022-07-29T02:30:55;13.95;;;10.35;;
56005;SDS011;41888;44.696;10.522;2022-07-29T02:33:27;19.67;;;12.45;;
56005;SDS011;41888;44.696;10.522;2022-07-29T02:35:56;17.90;;;10.82;;
56005;SDS011;41888;44.696;10.522;2022-07-29T02:38:25;14.30;;;11.55;;
56005;SDS011;41888;44.696;10.522;2022-07-29T02:41:13;21.90;;;12.50;;
56005;SDS011;41888;44.696;10.522;2022-07-29T02:43:41;18.15;;;11.77;;
56005;SDS011;41888;44.696;10.522;2022-07-29T02:46:13;15.68;;;11.30;;
56005;SDS011;41888;44.696;10.522;2022-07-29T02:48:50;16.65;;;10.55;;
56005;SDS011;41888;44.696;10.522;2022-07-29T02:51:23;16.95;;;11.55;;
56005;SDS011;41888;44.696;10.522;2022-07-29T02:53:54;14.52;;;10.35;;
56005;SDS011;41888;44.696;10.522;2022-07-29T02:56:25;14.05;;;10.18;;
56005;SDS011;41888;44.696;10.522;2022-07-29T02:58:58;14.65;;;10.98;;
56005;SDS011;41888;44.696;10.522;2022-07-29T03:01:28;17.08;;;12.13;;
56005;SDS011;41888;44.696;10.522;2022-07-29T03:03:57;14.40;;;11.68;;
56005;SDS011;41888;44.696;10.522;2022-07-29T03:06:28;14.65;;;11.55;;
56005;SDS011;41888;44.696;10.522;2022-07-29T03:08:55;14.65;;;11.45;;
56005;SDS011;41888;44.696;10.522;2022-07-29T03:11:24;18.77;;;12.00;;
56005;SDS011;41888;44.696;10.522;2022-07-29T03:13:51;14.55;;;11.93;;
56005;SDS011;41888;44.696;10.522;2022-07-29T03:16:19;14.77;;;10.57;;
56005;SDS011;41888;44.696;10.522;2022-07-29T03:18:47;13.95;;;10.25;;
56005;SDS011;41888;44.696;10.522;2022-07-29T03:21:13;12.07;;;9.15;;
56005;SDS011;41888;44.696;10.522;2022-07-29T03:23:43;12.07;;;9.48;;
56005;SDS011;41888;44.696;10.522;2022-07-29T03:26:12;14.02;;;9.90;;
56005;SDS011;41888;44.696;10.522;2022-07-29T03:28:38;12.73;;;8.63;;
56005;SDS011;41888;44.696;10.522;2022-07-29T03:31:05;11.05;;;8.45;;
56005;SDS011;41888;44.696;10.522;2022-07-29T03:33:31;12.85;;;9.38;;
56005;SDS011;41888;44.696;10.522;2022-07-29T03:35:57;13.68;;;9.70;;
56005;SDS011;41888;44.696;10.522;2022-07-29T03:38:25;14.13;;;10.80;;
56005;SDS011;41888;44.696;10.522;2022-07-29T03:40:56;14.35;;;10.32;;
56005;SDS011;41888;44.696;10.522;2022-07-29T03:43:26;13.15;;;10.57;;
56005;SDS011;41888;44.696;10.522;2022-07-29T03:45:57;15.68;;;10.80;;
56005;SDS011;41888;44.696;10.522;2022-07-29T03:48:28;15.02;;;10.50;;
56005;SDS011;41888;44.696;10.522;2022-07-29T03:51:00;15.02;;;11.10;;
56005;SDS011;41888;44.696;10.522;2022-07-29T03:53:26;15.27;;;11.27;;
56005;SDS011;41888;44.696;10.522;2022-07-29T03:55:54;18.85;;;11.75;;
56005;SDS011;41888;44.696;10.522;2022-07-29T03:58:25;14.48;;;11.20;;
56005;SDS011;41888;44.696;10.522;2022-07-29T04:00:53;14.00;;;11.30;;
56005;SDS011;41888;44.696;10.522;2022-07-29T04:03:20;16.08;;;11.73;;
56005;SDS011;41888;44.696;10.522;2022-07-29T04:08:43;17.30;;;11.15;;
56005;SDS011;41888;44.696;10.522;2022-07-29T04:11:09;14.27;;;11.70;;
56005;SDS011;41888;44.696;10.522;2022-07-29T04:13:35;16.38;;;12.55;;
56005;SDS011;41888;44.696;10.522;2022-07-29T04:16:01;18.48;;;12.60;;
56005;SDS011;41888;44.696;10.522;2022-07-29T04:18:28;17.30;;;11.32;;
56005;SDS011;41888;44.696;10.522;2022-07-29T04:20:54;15.10;;;11.65;;
56005;SDS011;41888;44.696;10.522;2022-07-29T04:23:20;16.70;;;12.40;;
56005;SDS011;41888;44.696;10.522;2022-07-29T04:25:46;14.85;;;10.50;;
56005;SDS011;41888;44.696;10.522;2022-07-29T04:28:13;14.98;;;9.32;;
56005;SDS011;41888;44.696;10.522;2022-07-29T04:30:39;13.60;;;9.70;;
56005;SDS011;41888;44.696;10.522;2022-07-29T04:33:05;12.60;;;9.30;;
56005;SDS011;41888;44.696;10.522;2022-07-29T04:35:36;15.30;;;10.02;;
56005;SDS011;41888;44.696;10.522;2022-07-29T04:38:03;14.30;;;9.90;;
56005;SDS011;41888;44.696;10.522;2022-07-29T04:40:30;14.68;;;10.07;;
56005;SDS011;41888;44.696;10.522;2022-07-29T04:42:58;14.05;;;9.90;;
56005;SDS011;41888;44.696;10.522;2022-07-29T04:45:25;16.98;;;10.55;;
56005;SDS011;41888;44.696;10.522;2022-07-29T04:47:52;16.58;;;10.25;;
56005;SDS011;41888;44.696;10.522;2022-07-29T04:50:18;14.32;;;11.02;;
56005;SDS011;41888;44.696;10.522;2022-07-29T04:52:44;14.70;;;11.13;;
56005;SDS011;41888;44.696;10.522;2022-07-29T04:55:10;15.10;;;10.73;;
56005;SDS011;41888;44.696;10.522;2022-07-29T04:57:37;15.73;;;10.90;;
56005;SDS011;41888;44.696;10.522;2022-07-29T05:00:04;15.77;;;11.10;;
56005;SDS011;41888;44.696;10.522;2022-07-29T05:02:31;16.45;;;11.63;;
56005;SDS011;41888;44.696;10.522;2022-07-29T05:04:57;15.30;;;12.25;;
56005;SDS011;41888;44.696;10.522;2022-07-29T05:07:25;16.63;;;10.93;;
56005;SDS011;41888;44.696;10.522;2022-07-29T05:09:52;17.38;;;10.52;;
56005;SDS011;41888;44.696;10.522;2022-07-29T05:12:18;18.02;;;11.40;;
56005;SDS011;41888;44.696;10.522;2022-07-29T05:14:44;15.73;;;11.20;;
56005;SDS011;41888;44.696;10.522;2022-07-29T05:17:10;15.25;;;10.98;;
56005;SDS011;41888;44.696;10.522;2022-07-29T05:19:36;15.88;;;10.13;;
56005;SDS011;41888;44.696;10.522;2022-07-29T05:22:03;13.68;;;9.30;;
56005;SDS011;41888;44.696;10.522;2022-07-29T05:24:29;12.68;;;9.48;;
56005;SDS011;41888;44.696;10.522;2022-07-29T05:26:55;18.65;;;8.93;;
56005;SDS011;41888;44.696;10.522;2022-07-29T05:29:21;10.13;;;7.65;;
56005;SDS011;41888;44.696;10.522;2022-07-29T05:31:47;10.82;;;7.75;;
56005;SDS011;41888;44.696;10.522;2022-07-29T05:34:14;12.35;;;8.55;;
56005;SDS011;41888;44.696;10.522;2022-07-29T05:36:40;12.20;;;9.18;;
56005;SDS011;41888;44.696;10.522;2022-07-29T05:39:06;13.05;;;9.13;;
56005;SDS011;41888;44.696;10.522;2022-07-29T05:41:32;11.02;;;8.30;;
56005;SDS011;41888;44.696;10.522;2022-07-29T05:43:58;16.95;;;10.48;;
56005;SDS011;41888;44.696;10.522;2022-07-29T05:46:24;12.10;;;8.63;;
56005;SDS011;41888;44.696;10.522;2022-07-29T05:48:51;14.77;;;10.15;;
56005;SDS011;41888;44.696;10.522;2022-07-29T05:51:17;12.38;;;9.32;;
56005;SDS011;41888;44.696;10.522;2022-07-29T05:53:43;13.32;;;9.05;;
56005;SDS011;41888;44.696;10.522;2022-07-29T05:56:10;11.52;;;9.43;;
56005;SDS011;41888;44.696;10.522;2022-07-29T05:58:36;14.85;;;11.02;;
56005;SDS011;41888;44.696;10.522;2022-07-29T06:01:02;9.82;;;7.75;;
56005;SDS011;41888;44.696;10.522;2022-07-29T06:03:28;15.65;;;9.23;;
56005;SDS011;41888;44.696;10.522;2022-07-29T06:05:55;12.70;;;9.93;;
56005;SDS011;41888;44.696;10.522;2022-07-29T06:08:21;14.85;;;9.82;;
56005;SDS011;41888;44.696;10.522;2022-07-29T06:10:48;16.02;;;10.63;;
56005;SDS011;41888;44.696;10.522;2022-07-29T06:13:14;13.63;;;10.05;;
56005;SDS011;41888;44.696;10.522;2022-07-29T06:15:41;14.80;;;9.95;;
56005;SDS011;41888;44.696;10.522;2022-07-29T06:18:07;14.32;;;9.48;;
56005;SDS011;41888;44.696;10.522;2022-07-29T06:20:34;13.60;;;10.25;;
56005;SDS011;41888;44.696;10.522;2022-07-29T06:23:01;12.27;;;9.70;;
56005;SDS011;41888;44.696;10.522;2022-07-29T06:25:29;13.07;;;8.95;;
56005;SDS011;41888;44.696;10.522;2022-07-29T06:27:57;13.77;;;9.65;;
56005;SDS011;41888;44.696;10.522;2022-07-29T06:30:23;12.77;;;9.20;;
56005;SDS011;41888;44.696;10.522;2022-07-29T06:32:49;9.82;;;8.65;;
56005;SDS011;41888;44.696;10.522;2022-07-29T06:35:16;11.48;;;8.88;;
56005;SDS011;41888;44.696;10.522;2022-07-29T06:37:42;12.57;;;8.55;;
56005;SDS011;41888;44.696;10.522;2022-07-29T06:40:08;13.57;;;8.88;;
56005;SDS011;41888;44.696;10.522;2022-07-29T06:42:53;11.43;;;8.63;;
56005;SDS011;41888;44.696;10.522;2022-07-29T06:45:19;13.15;;;8.23;;
56005;SDS011;41888;44.696;10.522;2022-07-29T06:47:46;13.65;;;8.55;;
56005;SDS011;41888;44.696;10.522;2022-07-29T06:50:13;13.65;;;8.50;;
56005;SDS011;41888;44.696;10.522;2022-07-29T06:52:40;9.90;;;7.07;;
56005;SDS011;41888;44.696;10.522;2022-07-29T06:55:06;12.43;;;7.93;;
56005;SDS011;41888;44.696;10.522;2022-07-29T06:57:33;10.45;;;6.47;;
56005;SDS011;41888;44.696;10.522;2022-07-29T06:59:59;10.75;;;7.15;;
56005;SDS011;41888;44.696;10.522;2022-07-29T07:02:25;11.95;;;7.05;;
56005;SDS011;41888;44.696;10.522;2022-07-29T07:04:52;11.15;;;7.25;;
56005;SDS011;41888;44.696;10.522;2022-07-29T07:07:19;12.30;;;7.55;;
56005;SDS011;41888;44.696;10.522;2022-07-29T07:09:45;11.98;;;7.63;;
56005;SDS011;41888;44.696;10.522;2022-07-29T07:12:11;9.13;;;7.85;;
56005;SDS011;41888;44.696;10.522;2022-07-29T07:14:37;9.20;;;6.85;;
56005;SDS011;41888;44.696;10.522;2022-07-29T07:17:04;11.25;;;6.47;;
56005;SDS011;41888;44.696;10.522;2022-07-29T07:19:31;11.88;;;8.73;;
56005;SDS011;41888;44.696;10.522;2022-07-29T07:21:58;16.20;;;9.02;;
56005;SDS011;41888;44.696;10.522;2022-07-29T07:24:24;10.50;;;7.15;;
56005;SDS011;41888;44.696;10.522;2022-07-29T07:26:50;12.05;;;6.80;;
56005;SDS011;41888;44.696;10.522;2022-07-29T07:29:16;7.50;;;5.57;;
56005;SDS011;41888;44.696;10.522;2022-07-29T07:31:42;9.38;;;7.35;;
56005;SDS011;41888;44.696;10.522;2022-07-29T07:34:09;13.02;;;6.47;;
56005;SDS011;41888;44.696;10.522;2022-07-29T07:36:35;11.43;;;6.63;;
56005;SDS011;41888;44.696;10.522;2022-07-29T07:39:01;9.10;;;6.65;;
56005;SDS011;41888;44.696;10.522;2022-07-29T07:41:28;10.55;;;5.00;;
56005;SDS011;41888;44.696;10.522;2022-07-29T07:43:54;10.55;;;6.50;;
56005;SDS011;41888;44.696;10.522;2022-07-29T07:46:21;9.48;;;5.60;;
56005;SDS011;41888;44.696;10.522;2022-07-29T07:48:47;10.07;;;6.82;;
56005;SDS011;41888;44.696;10.522;2022-07-29T07:51:13;10.27;;;6.57;;
56005;SDS011;41888;44.696;10.522;2022-07-29T07:53:39;8.82;;;5.90;;
56005;SDS011;41888;44.696;10.522;2022-07-29T07:56:06;9.02;;;6.53;;
56005;SDS011;41888;44.696;10.522;2022-07-29T07:58:32;9.32;;;6.47;;
56005;SDS011;41888;44.696;10.522;2022-07-29T08:01:00;8.48;;;5.93;;
56005;SDS011;41888;44.696;10.522;2022-07-29T08:03:26;7.55;;;5.25;;
56005;SDS011;41888;44.696;10.522;2022-07-29T08:05:52;8.98;;;6.90;;
56005;SDS011;41888;44.696;10.522;2022-07-29T08:08:19;11.90;;;7.90;;
56005;SDS011;41888;44.696;10.522;2022-07-29T08:10:45;11.48;;;7.00;;
56005;SDS011;41888;44.696;10.522;2022-07-29T08:13:18;11.15;;;6.35;;
56005;SDS011;41888;44.696;10.522;2022-07-29T08:15:45;10.13;;;6.93;;
56005;SDS011;41888;44.696;10.522;2022-07-29T08:18:12;7.60;;;5.35;;
56005;SDS011;41888;44.696;10.522;2022-07-29T08:20:38;8.75;;;6.53;;
56005;SDS011;41888;44.696;10.522;2022-07-29T08:23:05;14.02;;;7.55;;
56005;SDS011;41888;44.696;10.522;2022-07-29T08:25:34;13.20;;;8.18;;
56005;SDS011;41888;44.696;10.522;2022-07-29T08:28:03;9.55;;;6.97;;
56005;SDS011;41888;44.696;10.522;2022-07-29T08:30:29;8.77;;;6.25;;
56005;SDS011;41888;44.696;10.522;2022-07-29T08:32:57;11.55;;;7.00;;
56005;SDS011;41888;44.696;10.522;2022-07-29T08:35:23;13.27;;;7.47;;
56005;SDS011;41888;44.696;10.522;2022-07-29T08:37:50;12.65;;;6.07;;
56005;SDS011;41888;44.696;10.522;2022-07-29T08:40:18;8.63;;;6.22;;
56005;SDS011;41888;44.696;10.522;2022-07-29T08:42:45;9.68;;;5.88;;
56005;SDS011;41888;44.696;10.522;2022-07-29T08:45:12;10.57;;;6.97;;
56005;SDS011;41888;44.696;10.522;2022-07-29T08:47:38;9.40;;;6.75;;
56005;SDS011;41888;44.696;10.522;2022-07-29T08:50:05;11.85;;;7.32;;
56005;SDS011;41888;44.696;10.522;2022-07-29T08:52:33;8.88;;;6.90;;
56005;SDS011;41888;44.696;10.522;2022-07-29T08:55:02;11.38;;;6.75;;
56005;SDS011;41888;44.696;10.522;2022-07-29T08:57:30;9.18;;;6.38;;
56005;SDS011;41888;44.696;10.522;2022-07-29T08:59:57;9.50;;;5.95;;
56005;SDS011;41888;44.696;10.522;2022-07-29T09:02:28;11.50;;;6.68;;
56005;SDS011;41888;44.696;10.522;2022-07-29T09:05:00;11.25;;;7.00;;
56005;SDS011;41888;44.696;10.522;2022-07-29T09:07:27;9.45;;;7.78;;
56005;SDS011;41888;44.696;10.522;2022-07-29T09:09:54;8.75;;;5.05;;
56005;SDS011;41888;44.696;10.522;2022-07-29T09:12:21;6.95;;;4.32;;
56005;SDS011;41888;44.696;10.522;2022-07-29T09:14:49;8.68;;;6.35;;
56005;SDS011;41888;44.696;10.522;2022-07-29T09:17:16;10.88;;;6.30;;
56005;SDS011;41888;44.696;10.522;2022-07-29T09:19:43;7.25;;;4.93;;
56005;SDS011;41888;44.696;10.522;2022-07-29T09:22:09;8.35;;;5.97;;
56005;SDS011;41888;44.696;10.522;2022-07-29T09:24:38;7.85;;;6.03;;
56005;SDS011;41888;44.696;10.522;2022-07-29T09:27:22;8.82;;;4.82;;
56005;SDS011;41888;44.696;10.522;2022-07-29T09:30:04;9.38;;;6.82;;
56005;SDS011;41888;44.696;10.522;2022-07-29T09:32:32;7.45;;;5.38;;
56005;SDS011;41888;44.696;10.522;2022-07-29T09:35:19;8.00;;;5.88;;
56005;SDS011;41888;44.696;10.522;2022-07-29T09:37:47;9.27;;;5.63;;
56005;SDS011;41888;44.696;10.522;2022-07-29T09:40:15;10.25;;;6.50;;
56005;SDS011;41888;44.696;10.522;2022-07-29T09:42:46;8.30;;;5.03;;
56005;SDS011;41888;44.696;10.522;2022-07-29T09:45:13;7.53;;;5.30;;
56005;SDS011;41888;44.696;10.522;2022-07-29T09:47:51;8.93;;;5.97;;
56005;SDS011;41888;44.696;10.522;2022-07-29T09:50:17;9.85;;;6.05;;
56005;SDS011;41888;44.696;10.522;2022-07-29T09:52:49;7.68;;;5.72;;
56005;SDS011;41888;44.696;10.522;2022-07-29T09:55:17;9.15;;;5.30;;
56005;SDS011;41888;44.696;10.522;2022-07-29T09:57:44;9.18;;;6.65;;
56005;SDS011;41888;44.696;10.522;2022-07-29T10:00:15;9.55;;;6.47;;
56005;SDS011;41888;44.696;10.522;2022-07-29T10:02:44;9.98;;;6.45;;
56005;SDS011;41888;44.696;10.522;2022-07-29T10:05:18;7.70;;;5.60;;
56005;SDS011;41888;44.696;10.522;2022-07-29T10:07:53;8.80;;;5.28;;
56005;SDS011;41888;44.696;10.522;2022-07-29T10:10:22;7.07;;;5.13;;
56005;SDS011;41888;44.696;10.522;2022-07-29T10:15:20;9.40;;;5.63;;
56005;SDS011;41888;44.696;10.522;2022-07-29T10:17:48;8.50;;;5.43;;
56005;SDS011;41888;44.696;10.522;2022-07-29T10:20:16;8.13;;;5.18;;
56005;SDS011;41888;44.696;10.522;2022-07-29T10:22:42;10.02;;;5.72;;
56005;SDS011;41888;44.696;10.522;2022-07-29T10:25:09;7.97;;;5.45;;
56005;SDS011;41888;44.696;10.522;2022-07-29T10:27:36;6.47;;;4.25;;
56005;SDS011;41888;44.696;10.522;2022-07-29T10:30:03;6.88;;;4.30;;
56005;SDS011;41888;44.696;10.522;2022-07-29T10:32:35;8.25;;;4.55;;
56005;SDS011;41888;44.696;10.522;2022-07-29T10:35:18;5.78;;;4.78;;
56005;SDS011;41888;44.696;10.522;2022-07-29T10:43:41;8.38;;;5.25;;
56005;SDS011;41888;44.696;10.522;2022-07-29T10:46:10;8.02;;;4.75;;
56005;SDS011;41888;44.696;10.522;2022-07-29T10:54:18;8.43;;;4.45;;
56005;SDS011;41888;44.696;10.522;2022-07-29T11:10:48;5.47;;;3.47;;
56005;SDS011;41888;44.696;10.522;2022-07-29T11:13:44;6.13;;;3.95;;
56005;SDS011;41888;44.696;10.522;2022-07-29T11:16:08;8.50;;;3.50;;
56005;SDS011;41888;44.696;10.522;2022-07-29T11:18:34;4.40;;;3.42;;
56005;SDS011;41888;44.696;10.522;2022-07-29T11:21:01;7.53;;;4.97;;
56005;SDS011;41888;44.696;10.522;2022-07-29T11:34:17;8.48;;;4.10;;
56005;SDS011;41888;44.696;10.522;2022-07-29T11:39:38;4.50;;;3.83;;
56005;SDS011;41888;44.696;10.522;2022-07-29T11:47:25;4.15;;;3.50;;
56005;SDS011;41888;44.696;10.522;2022-07-29T11:49:54;4.80;;;3.90;;
56005;SDS011;41888;44.696;10.522;2022-07-29T11:52:22;4.43;;;3.35;;
56005;SDS011;41888;44.696;10.522;2022-07-29T11:54:49;6.18;;;3.60;;
56005;SDS011;41888;44.696;10.522;2022-07-29T11:57:16;9.27;;;3.90;;
56005;SDS011;41888;44.696;10.522;2022-07-29T11:59:44;4.78;;;4.20;;
56005;SDS011;41888;44.696;10.522;2022-07-29T12:02:11;7.00;;;3.90;;
56005;SDS011;41888;44.696;10.522;2022-07-29T12:04:51;6.82;;;3.85;;
56005;SDS011;41888;44.696;10.522;2022-07-29T12:07:28;5.07;;;3.13;;
56005;SDS011;41888;44.696;10.522;2022-07-29T12:09:55;7.78;;;3.85;;
56005;SDS011;41888;44.696;10.522;2022-07-29T12:12:21;6.68;;;3.90;;
56005;SDS011;41888;44.696;10.522;2022-07-29T12:14:48;8.77;;;4.25;;
56005;SDS011;41888;44.696;10.522;2022-07-29T12:20:10;6.32;;;3.97;;
56005;SDS011;41888;44.696;10.522;2022-07-29T12:22:39;5.00;;;3.53;;
56005;SDS011;41888;44.696;10.522;2022-07-29T12:25:07;7.93;;;4.03;;
56005;SDS011;41888;44.696;10.522;2022-07-29T12:27:35;4.88;;;4.00;;
56005;SDS011;41888;44.696;10.522;2022-07-29T12:32:31;5.72;;;3.60;;
56005;SDS011;41888;44.696;10.522;2022-07-29T12:35:12;6.95;;;4.32;;
56005;SDS011;41888;44.696;10.522;2022-07-29T12:37:44;9.63;;;3.13;;
56005;SDS011;41888;44.696;10.522;2022-07-29T12:40:13;6.38;;;4.20;;
56005;SDS011;41888;44.696;10.522;2022-07-29T12:42:41;9.10;;;3.28;;
56005;SDS011;41888;44.696;10.522;2022-07-29T12:45:31;4.57;;;3.17;;
56005;SDS011;41888;44.696;10.522;2022-07-29T12:47:57;6.85;;;4.20;;
56005;SDS011;41888;44.696;10.522;2022-07-29T12:50:24;4.65;;;3.40;;
56005;SDS011;41888;44.696;10.522;2022-07-29T12:52:50;6.45;;;3.65;;
56005;SDS011;41888;44.696;10.522;2022-07-29T12:55:38;6.10;;;3.92;;
56005;SDS011;41888;44.696;10.522;2022-07-29T12:58:04;4.40;;;3.22;;
56005;SDS011;41888;44.696;10.522;2022-07-29T13:00:30;8.65;;;4.25;;
56005;SDS011;41888;44.696;10.522;2022-07-29T13:02:57;4.65;;;3.28;;
56005;SDS011;41888;44.696;10.522;2022-07-29T13:05:38;5.95;;;3.90;;
56005;SDS011;41888;44.696;10.522;2022-07-29T13:08:12;9.98;;;4.28;;
56005;SDS011;41888;44.696;10.522;2022-07-29T13:13:10;6.35;;;3.72;;
56005;SDS011;41888;44.696;10.522;2022-07-29T13:15:42;4.85;;;3.30;;
56005;SDS011;41888;44.696;10.522;2022-07-29T13:18:28;5.97;;;3.13;;
56005;SDS011;41888;44.696;10.522;2022-07-29T13:20:54;7.32;;;3.80;;
56005;SDS011;41888;44.696;10.522;2022-07-29T13:23:21;4.82;;;4.07;;
56005;SDS011;41888;44.696;10.522;2022-07-29T13:25:47;5.35;;;3.78;;
56005;SDS011;41888;44.696;10.522;2022-07-29T13:28:13;4.75;;;3.70;;
56005;SDS011;41888;44.696;10.522;2022-07-29T13:30:40;6.97;;;3.90;;
56005;SDS011;41888;44.696;10.522;2022-07-29T13:33:07;7.00;;;3.90;;
56005;SDS011;41888;44.696;10.522;2022-07-29T13:35:33;6.15;;;3.88;;
56005;SDS011;41888;44.696;10.522;2022-07-29T13:38:00;4.15;;;3.40;;
56005;SDS011;41888;44.696;10.522;2022-07-29T13:40:26;12.07;;;5.15;;
56005;SDS011;41888;44.696;10.522;2022-07-29T13:42:54;5.75;;;3.78;;
56005;SDS011;41888;44.696;10.522;2022-07-29T13:45:20;5.75;;;3.63;;
56005;SDS011;41888;44.696;10.522;2022-07-29T13:47:46;6.80;;;4.00;;
56005;SDS011;41888;44.696;10.522;2022-07-29T13:50:12;6.25;;;3.50;;
56005;SDS011;41888;44.696;10.522;2022-07-29T13:52:38;4.43;;;3.97;;
56005;SDS011;41888;44.696;10.522;2022-07-29T13:55:05;8.32;;;4.32;;
56005;SDS011;41888;44.696;10.522;2022-07-29T13:57:32;5.90;;;3.83;;
56005;SDS011;41888;44.696;10.522;2022-07-29T13:59:58;9.07;;;3.50;;
56005;SDS011;41888;44.696;10.522;2022-07-29T14:02:24;5.85;;;3.88;;
56005;SDS011;41888;44.696;10.522;2022-07-29T14:04:50;7.15;;;3.67;;
56005;SDS011;41888;44.696;10.522;2022-07-29T14:07:20;5.82;;;4.30;;
56005;SDS011;41888;44.696;10.522;2022-07-29T14:09:46;6.07;;;3.88;;
56005;SDS011;41888;44.696;10.522;2022-07-29T14:12:12;8.63;;;3.50;;
56005;SDS011;41888;44.696;10.522;2022-07-29T14:14:39;4.75;;;3.10;;
56005;SDS011;41888;44.696;10.522;2022-07-29T14:17:06;6.45;;;3.80;;
56005;SDS011;41888;44.696;10.522;2022-07-29T14:19:32;10.68;;;4.65;;
56005;SDS011;41888;44.696;10.522;2022-07-29T14:22:03;9.95;;;4.75;;
56005;SDS011;41888;44.696;10.522;2022-07-29T14:24:30;12.07;;;4.80;;
56005;SDS011;41888;44.696;10.522;2022-07-29T14:26:56;6.47;;;4.60;;
56005;SDS011;41888;44.696;10.522;2022-07-29T14:29:23;9.82;;;4.55;;
56005;SDS011;41888;44.696;10.522;2022-07-29T14:31:49;7.25;;;4.30;;
56005;SDS011;41888;44.696;10.522;2022-07-29T14:34:15;8.57;;;4.65;;
56005;SDS011;41888;44.696;10.522;2022-07-29T14:36:41;7.13;;;4.70;;
56005;SDS011;41888;44.696;10.522;2022-07-29T14:39:08;8.68;;;4.72;;
56005;SDS011;41888;44.696;10.522;2022-07-29T14:41:34;6.70;;;4.97;;
56005;SDS011;41888;44.696;10.522;2022-07-29T14:44:00;6.28;;;4.35;;
56005;SDS011;41888;44.696;10.522;2022-07-29T14:46:27;8.07;;;4.53;;
56005;SDS011;41888;44.696;10.522;2022-07-29T14:48:53;6.35;;;4.80;;
56005;SDS011;41888;44.696;10.522;2022-07-29T14:51:19;9.77;;;4.00;;
56005;SDS011;41888;44.696;10.522;2022-07-29T14:53:46;6.63;;;4.53;;
56005;SDS011;41888;44.696;10.522;2022-07-29T14:56:12;7.43;;;4.30;;
56005;SDS011;41888;44.696;10.522;2022-07-29T14:58:38;10.48;;;5.55;;
56005;SDS011;41888;44.696;10.522;2022-07-29T15:01:04;7.05;;;5.20;;
56005;SDS011;41888;44.696;10.522;2022-07-29T15:03:31;12.88;;;4.93;;
56005;SDS011;41888;44.696;10.522;2022-07-29T15:05:57;10.23;;;5.22;;
56005;SDS011;41888;44.696;10.522;2022-07-29T15:08:23;7.75;;;4.43;;
56005;SDS011;41888;44.696;10.522;2022-07-29T15:10:50;7.68;;;3.80;;
56005;SDS011;41888;44.696;10.522;2022-07-29T15:13:16;7.35;;;4.07;;
56005;SDS011;41888;44.696;10.522;2022-07-29T15:15:42;10.30;;;4.60;;
56005;SDS011;41888;44.696;10.522;2022-07-29T15:18:10;5.68;;;3.75;;
56005;SDS011;41888;44.696;10.522;2022-07-29T15:20:36;7.68;;;3.75;;
56005;SDS011;41888;44.696;10.522;2022-07-29T15:23:02;6.80;;;4.35;;
56005;SDS011;41888;44.696;10.522;2022-07-29T15:25:28;6.38;;;2.75;;
56005;SDS011;41888;44.696;10.522;2022-07-29T15:27:55;3.75;;;2.00;;
56005;SDS011;41888;44.696;10.522;2022-07-29T15:30:21;2.53;;;1.80;;
56005;SDS011;41888;44.696;10.522;2022-07-29T15:32:47;3.83;;;2.35;;
56005;SDS011;41888;44.696;10.522;2022-07-29T15:35:13;4.53;;;1.88;;
56005;SDS011;41888;44.696;10.522;2022-07-29T15:37:39;3.25;;;2.25;;
56005;SDS011;41888;44.696;10.522;2022-07-29T15:40:06;4.30;;;2.55;;
56005;SDS011;41888;44.696;10.522;2022-07-29T15:42:33;4.85;;;2.47;;
56005;SDS011;41888;44.696;10.522;2022-07-29T15:45:02;4.47;;;2.30;;